sensor_id;sensor_type;location;lat;lon;timestamp;temperature;humidity
20712;DHT22;10517;50.742;4.224;2023-12-29T00:01:47;10.50;99.90
20712;DHT22;10517;50.742;4.224;2023-12-29T00:04:13;10.50;99.90
20712;DHT22;10517;50.742;4.224;2023-12-29T00:06:39;10.60;99.90
20712;DHT22;10517;50.742;4.224;2023-12-29T00:09:05;10.60;99.90
20712;DHT22;10517;50.742;4.224;2023-12-29T00:11:30;10.60;99.90
20712;DHT22;10517;50.742;4.224;2023-12-29T00:13:56;10.70;99.90
20712;DHT22;10517;50.742;4.224;2023-12-29T00:16:22;10.70;99.90
20712;DHT22;10517;50.742;4.224;2023-12-29T00:18:47;10.70;99.90
20712;DHT22;10517;50.742;4.224;2023-12-29T00:21:13;10.60;99.90
20712;DHT22;10517;50.742;4.224;2023-12-29T00:23:40;10.70;99.90
20712;DHT22;10517;50.742;4.224;2023-12-29T00:26:05;10.70;99.90
20712;DHT22;10517;50.742;4.224;2023-12-29T00:28:31;10.70;99.90
20712;DHT22;10517;50.742;4.224;2023-12-29T00:30:57;10.70;99.90
20712;DHT22;10517;50.742;4.224;2023-12-29T00:33:22;10.70;99.90
20712;DHT22;10517;50.742;4.224;2023-12-29T00:35:48;10.80;99.90
20712;DHT22;10517;50.742;4.224;2023-12-29T00:38:13;10.80;99.90
20712;DHT22;10517;50.742;4.224;2023-12-29T00:40:39;10.80;99.90
20712;DHT22;10517;50.742;4.224;2023-12-29T00:43:07;10.90;99.90
20712;DHT22;10517;50.742;4.224;2023-12-29T00:45:33;10.80;99.90
20712;DHT22;10517;50.742;4.224;2023-12-29T00:48:01;10.90;99.90
20712;DHT22;10517;50.742;4.224;2023-12-29T00:50:27;10.90;99.90
20712;DHT22;10517;50.742;4.224;2023-12-29T00:52:53;10.90;99.90
20712;DHT22;10517;50.742;4.224;2023-12-29T00:55:19;10.90;99.90
20712;DHT22;10517;50.742;4.224;2023-12-29T00:57:45;10.90;99.90
20712;DHT22;10517;50.742;4.224;2023-12-29T01:00:11;10.90;99.90
20712;DHT22;10517;50.742;4.224;2023-12-29T01:02:38;10.80;99.90
20712;DHT22;10517;50.742;4.224;2023-12-29T01:05:04;10.90;99.90
20712;DHT22;10517;50.742;4.224;2023-12-29T01:07:30;11.00;99.90
20712;DHT22;10517;50.742;4.224;2023-12-29T01:09:55;11.00;99.90
20712;DHT22;10517;50.742;4.224;2023-12-29T01:12:21;11.00;99.90
20712;DHT22;10517;50.742;4.224;2023-12-29T01:14:46;11.00;99.90
20712;DHT22;10517;50.742;4.224;2023-12-29T01:17:12;10.90;99.90
20712;DHT22;10517;50.742;4.224;2023-12-29T01:19:38;11.00;99.90
20712;DHT22;10517;50.742;4.224;2023-12-29T01:22:03;11.00;99.90
20712;DHT22;10517;50.742;4.224;2023-12-29T01:24:29;11.00;99.90
20712;DHT22;10517;50.742;4.224;2023-12-29T01:26:55;11.00;99.90
20712;DHT22;10517;50.742;4.224;2023-12-29T01:29:21;11.00;99.90
20712;DHT22;10517;50.742;4.224;2023-12-29T01:31:46;11.00;99.90
20712;DHT22;10517;50.742;4.224;2023-12-29T01:34:12;11.00;99.90
20712;DHT22;10517;50.742;4.224;2023-12-29T01:36:38;11.00;99.90
20712;DHT22;10517;50.742;4.224;2023-12-29T01:39:04;11.00;99.90
20712;DHT22;10517;50.742;4.224;2023-12-29T01:41:29;10.90;99.90
20712;DHT22;10517;50.742;4.224;2023-12-29T01:46:33;10.90;99.90
20712;DHT22;10517;50.742;4.224;2023-12-29T01:48:58;10.90;99.90
20712;DHT22;10517;50.742;4.224;2023-12-29T01:51:26;11.00;99.90
20712;DHT22;10517;50.742;4.224;2023-12-29T01:53:53;10.90;99.90
20712;DHT22;10517;50.742;4.224;2023-12-29T01:56:20;10.90;99.90
20712;DHT22;10517;50.742;4.224;2023-12-29T01:58:51;10.90;99.90
20712;DHT22;10517;50.742;4.224;2023-12-29T02:01:18;10.90;99.90
20712;DHT22;10517;50.742;4.224;2023-12-29T02:03:44;11.00;99.90
20712;DHT22;10517;50.742;4.224;2023-12-29T02:06:11;11.00;99.90
20712;DHT22;10517;50.742;4.224;2023-12-29T02:08:37;11.00;99.90
20712;DHT22;10517;50.742;4.224;2023-12-29T02:11:04;11.00;99.90
20712;DHT22;10517;50.742;4.224;2023-12-29T02:13:30;11.00;99.90
20712;DHT22;10517;50.742;4.224;2023-12-29T02:15:59;10.90;99.90
20712;DHT22;10517;50.742;4.224;2023-12-29T02:18:27;11.00;99.90
20712;DHT22;10517;50.742;4.224;2023-12-29T02:20:53;10.90;99.90
20712;DHT22;10517;50.742;4.224;2023-12-29T02:23:19;10.90;99.90
20712;DHT22;10517;50.742;4.224;2023-12-29T02:25:44;10.90;99.90
20712;DHT22;10517;50.742;4.224;2023-12-29T02:28:26;10.90;99.90
20712;DHT22;10517;50.742;4.224;2023-12-29T02:31:16;10.90;99.90
20712;DHT22;10517;50.742;4.224;2023-12-29T02:33:43;11.00;99.90
20712;DHT22;10517;50.742;4.224;2023-12-29T02:36:10;11.00;99.90
20712;DHT22;10517;50.742;4.224;2023-12-29T02:38:38;10.90;99.90
20712;DHT22;10517;50.742;4.224;2023-12-29T02:41:03;10.80;99.90
20712;DHT22;10517;50.742;4.224;2023-12-29T02:43:31;10.70;99.90
20712;DHT22;10517;50.742;4.224;2023-12-29T02:45:57;10.70;99.90
20712;DHT22;10517;50.742;4.224;2023-12-29T02:48:23;10.70;99.90
20712;DHT22;10517;50.742;4.224;2023-12-29T02:50:49;10.70;99.90
20712;DHT22;10517;50.742;4.224;2023-12-29T02:53:14;10.70;99.90
20712;DHT22;10517;50.742;4.224;2023-12-29T02:55:40;10.70;99.90
20712;DHT22;10517;50.742;4.224;2023-12-29T02:58:06;10.60;99.90
20712;DHT22;10517;50.742;4.224;2023-12-29T03:00:31;10.60;99.90
20712;DHT22;10517;50.742;4.224;2023-12-29T03:02:57;10.50;99.90
20712;DHT22;10517;50.742;4.224;2023-12-29T03:05:22;10.60;99.90
20712;DHT22;10517;50.742;4.224;2023-12-29T03:07:48;10.60;99.90
20712;DHT22;10517;50.742;4.224;2023-12-29T03:10:13;10.70;99.90
20712;DHT22;10517;50.742;4.224;2023-12-29T03:12:39;10.70;99.90
20712;DHT22;10517;50.742;4.224;2023-12-29T03:15:05;10.70;99.90
20712;DHT22;10517;50.742;4.224;2023-12-29T03:17:31;10.80;99.90
20712;DHT22;10517;50.742;4.224;2023-12-29T03:19:56;10.80;99.90
20712;DHT22;10517;50.742;4.224;2023-12-29T03:22:22;10.90;99.90
20712;DHT22;10517;50.742;4.224;2023-12-29T03:24:48;10.90;99.90
20712;DHT22;10517;50.742;4.224;2023-12-29T03:27:14;10.90;99.90
20712;DHT22;10517;50.742;4.224;2023-12-29T03:29:39;10.90;99.90
20712;DHT22;10517;50.742;4.224;2023-12-29T03:32:05;10.80;99.90
20712;DHT22;10517;50.742;4.224;2023-12-29T03:34:35;10.70;99.90
20712;DHT22;10517;50.742;4.224;2023-12-29T03:37:01;10.70;99.90
20712;DHT22;10517;50.742;4.224;2023-12-29T03:39:26;10.70;99.90
20712;DHT22;10517;50.742;4.224;2023-12-29T03:41:52;10.70;99.90
20712;DHT22;10517;50.742;4.224;2023-12-29T03:44:17;10.80;99.90
20712;DHT22;10517;50.742;4.224;2023-12-29T03:46:43;10.80;99.90
20712;DHT22;10517;50.742;4.224;2023-12-29T03:49:09;10.80;99.90
20712;DHT22;10517;50.742;4.224;2023-12-29T03:51:35;10.70;99.90
20712;DHT22;10517;50.742;4.224;2023-12-29T03:54:01;10.70;99.90
20712;DHT22;10517;50.742;4.224;2023-12-29T03:56:27;10.60;99.90
20712;DHT22;10517;50.742;4.224;2023-12-29T03:58:53;10.50;99.90
20712;DHT22;10517;50.742;4.224;2023-12-29T04:01:18;10.40;99.90
20712;DHT22;10517;50.742;4.224;2023-12-29T04:03:45;10.30;99.90
20712;DHT22;10517;50.742;4.224;2023-12-29T04:06:11;10.20;99.90
20712;DHT22;10517;50.742;4.224;2023-12-29T04:08:37;10.20;99.90
20712;DHT22;10517;50.742;4.224;2023-12-29T04:11:04;10.20;99.90
20712;DHT22;10517;50.742;4.224;2023-12-29T04:13:30;10.20;99.90
20712;DHT22;10517;50.742;4.224;2023-12-29T04:15:56;10.20;99.90
20712;DHT22;10517;50.742;4.224;2023-12-29T04:18:23;10.10;99.90
20712;DHT22;10517;50.742;4.224;2023-12-29T04:20:49;10.10;99.90
20712;DHT22;10517;50.742;4.224;2023-12-29T04:23:15;10.00;99.90
20712;DHT22;10517;50.742;4.224;2023-12-29T04:25:41;10.00;99.90
20712;DHT22;10517;50.742;4.224;2023-12-29T04:28:07;10.10;99.90
20712;DHT22;10517;50.742;4.224;2023-12-29T04:30:33;10.10;99.90
20712;DHT22;10517;50.742;4.224;2023-12-29T04:32:59;10.10;99.90
20712;DHT22;10517;50.742;4.224;2023-12-29T04:35:24;10.10;99.90
20712;DHT22;10517;50.742;4.224;2023-12-29T04:37:50;10.10;99.90
20712;DHT22;10517;50.742;4.224;2023-12-29T04:40:16;10.10;99.90
20712;DHT22;10517;50.742;4.224;2023-12-29T04:42:42;10.10;99.90
20712;DHT22;10517;50.742;4.224;2023-12-29T04:45:08;10.10;99.90
20712;DHT22;10517;50.742;4.224;2023-12-29T04:47:33;10.00;99.90
20712;DHT22;10517;50.742;4.224;2023-12-29T04:49:59;10.00;99.90
20712;DHT22;10517;50.742;4.224;2023-12-29T04:52:24;10.00;99.90
20712;DHT22;10517;50.742;4.224;2023-12-29T04:54:50;10.10;99.90
20712;DHT22;10517;50.742;4.224;2023-12-29T04:57:16;10.10;99.90
20712;DHT22;10517;50.742;4.224;2023-12-29T04:59:41;10.10;99.90
20712;DHT22;10517;50.742;4.224;2023-12-29T05:02:07;10.10;99.90
20712;DHT22;10517;50.742;4.224;2023-12-29T05:04:36;10.20;99.90
20712;DHT22;10517;50.742;4.224;2023-12-29T05:07:05;10.20;99.90
20712;DHT22;10517;50.742;4.224;2023-12-29T05:09:30;10.30;99.90
20712;DHT22;10517;50.742;4.224;2023-12-29T05:11:56;10.30;99.90
20712;DHT22;10517;50.742;4.224;2023-12-29T05:14:21;10.30;99.90
20712;DHT22;10517;50.742;4.224;2023-12-29T05:16:47;10.40;99.90
20712;DHT22;10517;50.742;4.224;2023-12-29T05:19:12;10.50;99.90
20712;DHT22;10517;50.742;4.224;2023-12-29T05:21:38;10.50;99.90
20712;DHT22;10517;50.742;4.224;2023-12-29T05:24:04;10.60;99.90
20712;DHT22;10517;50.742;4.224;2023-12-29T05:26:31;10.60;99.90
20712;DHT22;10517;50.742;4.224;2023-12-29T05:28:57;10.60;99.90
20712;DHT22;10517;50.742;4.224;2023-12-29T05:31:22;10.60;99.90
20712;DHT22;10517;50.742;4.224;2023-12-29T05:33:48;10.50;99.90
20712;DHT22;10517;50.742;4.224;2023-12-29T05:36:14;10.50;99.90
20712;DHT22;10517;50.742;4.224;2023-12-29T05:38:39;10.50;99.90
20712;DHT22;10517;50.742;4.224;2023-12-29T05:41:06;10.40;99.90
20712;DHT22;10517;50.742;4.224;2023-12-29T05:43:32;10.50;99.90
20712;DHT22;10517;50.742;4.224;2023-12-29T05:45:59;10.50;99.90
20712;DHT22;10517;50.742;4.224;2023-12-29T05:48:25;10.50;99.90
20712;DHT22;10517;50.742;4.224;2023-12-29T05:50:51;10.50;99.90
20712;DHT22;10517;50.742;4.224;2023-12-29T05:53:17;10.40;99.90
20712;DHT22;10517;50.742;4.224;2023-12-29T05:55:43;10.40;99.90
20712;DHT22;10517;50.742;4.224;2023-12-29T05:58:09;10.40;99.90
20712;DHT22;10517;50.742;4.224;2023-12-29T06:00:36;10.40;99.90
20712;DHT22;10517;50.742;4.224;2023-12-29T06:03:02;10.40;99.90
20712;DHT22;10517;50.742;4.224;2023-12-29T06:05:29;10.30;99.90
20712;DHT22;10517;50.742;4.224;2023-12-29T06:07:55;10.20;99.90
20712;DHT22;10517;50.742;4.224;2023-12-29T06:10:21;10.30;99.90
20712;DHT22;10517;50.742;4.224;2023-12-29T06:12:46;10.30;99.90
20712;DHT22;10517;50.742;4.224;2023-12-29T06:15:13;10.20;99.90
20712;DHT22;10517;50.742;4.224;2023-12-29T06:17:39;10.10;99.90
20712;DHT22;10517;50.742;4.224;2023-12-29T06:20:06;10.10;99.90
20712;DHT22;10517;50.742;4.224;2023-12-29T06:22:32;10.10;99.90
20712;DHT22;10517;50.742;4.224;2023-12-29T06:24:58;10.00;99.90
20712;DHT22;10517;50.742;4.224;2023-12-29T06:27:25;10.00;99.90
20712;DHT22;10517;50.742;4.224;2023-12-29T06:29:50;10.00;99.90
20712;DHT22;10517;50.742;4.224;2023-12-29T06:32:16;10.00;99.90
20712;DHT22;10517;50.742;4.224;2023-12-29T06:34:42;9.90;99.90
20712;DHT22;10517;50.742;4.224;2023-12-29T06:37:07;9.90;99.90
20712;DHT22;10517;50.742;4.224;2023-12-29T06:39:33;10.00;99.90
20712;DHT22;10517;50.742;4.224;2023-12-29T06:41:59;10.00;99.90
20712;DHT22;10517;50.742;4.224;2023-12-29T06:44:24;10.00;99.90
20712;DHT22;10517;50.742;4.224;2023-12-29T06:46:50;9.90;99.90
20712;DHT22;10517;50.742;4.224;2023-12-29T06:49:15;9.90;99.90
20712;DHT22;10517;50.742;4.224;2023-12-29T06:51:41;9.90;99.90
20712;DHT22;10517;50.742;4.224;2023-12-29T06:54:07;9.80;99.90
20712;DHT22;10517;50.742;4.224;2023-12-29T06:56:32;9.80;99.90
20712;DHT22;10517;50.742;4.224;2023-12-29T06:58:58;9.80;99.90
20712;DHT22;10517;50.742;4.224;2023-12-29T07:01:24;9.90;99.90
20712;DHT22;10517;50.742;4.224;2023-12-29T07:03:50;9.90;99.90
20712;DHT22;10517;50.742;4.224;2023-12-29T07:06:16;9.90;99.90
20712;DHT22;10517;50.742;4.224;2023-12-29T07:08:41;9.90;99.90
20712;DHT22;10517;50.742;4.224;2023-12-29T07:11:11;10.00;99.90
20712;DHT22;10517;50.742;4.224;2023-12-29T07:13:39;10.00;99.90
20712;DHT22;10517;50.742;4.224;2023-12-29T07:16:05;10.00;99.90
20712;DHT22;10517;50.742;4.224;2023-12-29T07:18:30;10.00;99.90
20712;DHT22;10517;50.742;4.224;2023-12-29T07:20:56;10.10;99.90
20712;DHT22;10517;50.742;4.224;2023-12-29T07:23:22;10.10;99.90
20712;DHT22;10517;50.742;4.224;2023-12-29T07:25:48;10.10;99.90
20712;DHT22;10517;50.742;4.224;2023-12-29T07:28:14;10.10;99.90
20712;DHT22;10517;50.742;4.224;2023-12-29T07:30:39;10.00;99.90
20712;DHT22;10517;50.742;4.224;2023-12-29T07:33:05;10.10;99.90
20712;DHT22;10517;50.742;4.224;2023-12-29T07:35:31;10.00;99.90
20712;DHT22;10517;50.742;4.224;2023-12-29T07:37:56;10.00;99.90
20712;DHT22;10517;50.742;4.224;2023-12-29T07:40:22;10.00;99.90
20712;DHT22;10517;50.742;4.224;2023-12-29T07:42:48;10.10;99.90
20712;DHT22;10517;50.742;4.224;2023-12-29T07:45:16;10.10;99.90
20712;DHT22;10517;50.742;4.224;2023-12-29T07:47:42;10.10;99.90
20712;DHT22;10517;50.742;4.224;2023-12-29T07:50:08;10.20;99.90
20712;DHT22;10517;50.742;4.224;2023-12-29T07:52:33;10.10;99.90
20712;DHT22;10517;50.742;4.224;2023-12-29T07:54:59;10.10;99.90
20712;DHT22;10517;50.742;4.224;2023-12-29T07:57:25;10.10;99.90
20712;DHT22;10517;50.742;4.224;2023-12-29T07:59:50;10.10;99.90
20712;DHT22;10517;50.742;4.224;2023-12-29T08:02:16;10.10;99.90
20712;DHT22;10517;50.742;4.224;2023-12-29T08:04:42;10.10;99.90
20712;DHT22;10517;50.742;4.224;2023-12-29T08:07:07;10.10;99.90
20712;DHT22;10517;50.742;4.224;2023-12-29T08:09:33;10.10;99.90
20712;DHT22;10517;50.742;4.224;2023-12-29T08:11:59;10.10;99.90
20712;DHT22;10517;50.742;4.224;2023-12-29T08:14:26;10.10;99.90
20712;DHT22;10517;50.742;4.224;2023-12-29T08:16:51;10.10;99.90
20712;DHT22;10517;50.742;4.224;2023-12-29T08:19:17;10.10;99.90
20712;DHT22;10517;50.742;4.224;2023-12-29T08:21:42;10.10;99.90
20712;DHT22;10517;50.742;4.224;2023-12-29T08:24:08;10.10;99.90
20712;DHT22;10517;50.742;4.224;2023-12-29T08:26:33;10.20;99.90
20712;DHT22;10517;50.742;4.224;2023-12-29T08:28:59;10.20;99.90
20712;DHT22;10517;50.742;4.224;2023-12-29T08:31:25;10.20;99.90
20712;DHT22;10517;50.742;4.224;2023-12-29T08:33:52;10.30;99.90
20712;DHT22;10517;50.742;4.224;2023-12-29T08:36:21;10.30;99.90
20712;DHT22;10517;50.742;4.224;2023-12-29T08:38:46;10.30;99.90
20712;DHT22;10517;50.742;4.224;2023-12-29T08:41:15;10.30;99.90
20712;DHT22;10517;50.742;4.224;2023-12-29T08:43:41;10.40;99.90
20712;DHT22;10517;50.742;4.224;2023-12-29T08:46:06;10.40;99.90
20712;DHT22;10517;50.742;4.224;2023-12-29T08:48:32;10.30;99.90
20712;DHT22;10517;50.742;4.224;2023-12-29T08:50:58;10.30;99.90
20712;DHT22;10517;50.742;4.224;2023-12-29T08:53:23;10.30;99.90
20712;DHT22;10517;50.742;4.224;2023-12-29T08:55:49;10.40;99.90
20712;DHT22;10517;50.742;4.224;2023-12-29T08:58:14;10.40;99.90
20712;DHT22;10517;50.742;4.224;2023-12-29T09:00:40;10.50;99.90
20712;DHT22;10517;50.742;4.224;2023-12-29T09:03:06;10.50;99.90
20712;DHT22;10517;50.742;4.224;2023-12-29T09:05:31;10.50;99.90
20712;DHT22;10517;50.742;4.224;2023-12-29T09:07:57;10.60;99.90
20712;DHT22;10517;50.742;4.224;2023-12-29T09:10:23;10.60;99.90
20712;DHT22;10517;50.742;4.224;2023-12-29T09:12:49;10.70;99.90
20712;DHT22;10517;50.742;4.224;2023-12-29T09:15:15;10.70;99.90
20712;DHT22;10517;50.742;4.224;2023-12-29T09:17:40;10.70;99.90
20712;DHT22;10517;50.742;4.224;2023-12-29T09:20:07;10.70;99.90
20712;DHT22;10517;50.742;4.224;2023-12-29T09:22:33;10.70;99.90
20712;DHT22;10517;50.742;4.224;2023-12-29T09:24:59;10.80;99.90
20712;DHT22;10517;50.742;4.224;2023-12-29T09:27:24;10.80;99.90
20712;DHT22;10517;50.742;4.224;2023-12-29T09:29:50;10.80;99.90
20712;DHT22;10517;50.742;4.224;2023-12-29T09:32:16;10.80;99.90
20712;DHT22;10517;50.742;4.224;2023-12-29T09:34:41;10.90;99.90
20712;DHT22;10517;50.742;4.224;2023-12-29T09:37:08;10.90;99.90
20712;DHT22;10517;50.742;4.224;2023-12-29T09:39:33;10.90;99.90
20712;DHT22;10517;50.742;4.224;2023-12-29T09:41:59;11.00;99.90
20712;DHT22;10517;50.742;4.224;2023-12-29T09:44:31;11.00;99.90
20712;DHT22;10517;50.742;4.224;2023-12-29T09:47:01;11.10;99.90
20712;DHT22;10517;50.742;4.224;2023-12-29T09:49:30;11.00;99.90
20712;DHT22;10517;50.742;4.224;2023-12-29T09:52:01;11.10;99.90
20712;DHT22;10517;50.742;4.224;2023-12-29T09:54:27;11.10;99.90
20712;DHT22;10517;50.742;4.224;2023-12-29T09:56:54;11.00;99.90
20712;DHT22;10517;50.742;4.224;2023-12-29T09:59:21;11.00;99.90
20712;DHT22;10517;50.742;4.224;2023-12-29T10:01:47;11.00;99.90
20712;DHT22;10517;50.742;4.224;2023-12-29T10:04:13;11.00;99.90
20712;DHT22;10517;50.742;4.224;2023-12-29T10:06:44;11.10;99.90
20712;DHT22;10517;50.742;4.224;2023-12-29T10:09:12;11.20;99.90
20712;DHT22;10517;50.742;4.224;2023-12-29T10:11:40;11.30;99.90
20712;DHT22;10517;50.742;4.224;2023-12-29T10:14:36;11.30;99.90
20712;DHT22;10517;50.742;4.224;2023-12-29T10:17:32;11.40;99.90
20712;DHT22;10517;50.742;4.224;2023-12-29T10:25:28;11.70;99.90
20712;DHT22;10517;50.742;4.224;2023-12-29T10:27:56;11.70;99.90
20712;DHT22;10517;50.742;4.224;2023-12-29T10:30:22;11.80;99.90
20712;DHT22;10517;50.742;4.224;2023-12-29T10:32:52;11.80;99.90
20712;DHT22;10517;50.742;4.224;2023-12-29T10:35:18;11.80;99.90
20712;DHT22;10517;50.742;4.224;2023-12-29T10:37:43;11.70;99.90
20712;DHT22;10517;50.742;4.224;2023-12-29T10:40:20;11.70;99.90
20712;DHT22;10517;50.742;4.224;2023-12-29T10:42:55;11.70;99.90
20712;DHT22;10517;50.742;4.224;2023-12-29T10:45:22;11.70;99.90
20712;DHT22;10517;50.742;4.224;2023-12-29T10:47:50;11.70;99.90
20712;DHT22;10517;50.742;4.224;2023-12-29T10:50:16;11.70;99.90
20712;DHT22;10517;50.742;4.224;2023-12-29T10:52:41;11.60;99.90
20712;DHT22;10517;50.742;4.224;2023-12-29T10:55:11;11.60;99.90
20712;DHT22;10517;50.742;4.224;2023-12-29T10:57:37;11.70;99.90
20712;DHT22;10517;50.742;4.224;2023-12-29T11:00:04;11.80;99.90
20712;DHT22;10517;50.742;4.224;2023-12-29T11:02:31;11.90;99.90
20712;DHT22;10517;50.742;4.224;2023-12-29T11:05:05;11.90;99.90
20712;DHT22;10517;50.742;4.224;2023-12-29T11:07:32;11.70;99.90
20712;DHT22;10517;50.742;4.224;2023-12-29T11:10:01;11.80;99.90
20712;DHT22;10517;50.742;4.224;2023-12-29T11:12:32;11.70;99.90
20712;DHT22;10517;50.742;4.224;2023-12-29T11:15:01;11.70;99.90
20712;DHT22;10517;50.742;4.224;2023-12-29T11:17:29;11.80;99.90
20712;DHT22;10517;50.742;4.224;2023-12-29T11:19:58;11.70;99.90
20712;DHT22;10517;50.742;4.224;2023-12-29T11:22:28;11.70;99.90
20712;DHT22;10517;50.742;4.224;2023-12-29T11:24:54;11.80;99.90
20712;DHT22;10517;50.742;4.224;2023-12-29T11:27:21;11.80;99.90
20712;DHT22;10517;50.742;4.224;2023-12-29T11:29:48;11.80;99.90
20712;DHT22;10517;50.742;4.224;2023-12-29T11:32:22;11.80;99.90
20712;DHT22;10517;50.742;4.224;2023-12-29T11:34:55;11.60;99.90
20712;DHT22;10517;50.742;4.224;2023-12-29T11:40:24;11.70;99.90
20712;DHT22;10517;50.742;4.224;2023-12-29T11:42:58;11.60;99.90
20712;DHT22;10517;50.742;4.224;2023-12-29T11:45:29;11.60;99.90
20712;DHT22;10517;50.742;4.224;2023-12-29T11:47:57;11.40;99.90
20712;DHT22;10517;50.742;4.224;2023-12-29T11:50:32;11.30;99.90
20712;DHT22;10517;50.742;4.224;2023-12-29T11:52:58;11.30;99.90
20712;DHT22;10517;50.742;4.224;2023-12-29T11:55:35;11.20;99.90
20712;DHT22;10517;50.742;4.224;2023-12-29T11:58:01;11.10;99.90
20712;DHT22;10517;50.742;4.224;2023-12-29T12:00:43;11.10;99.90
20712;DHT22;10517;50.742;4.224;2023-12-29T12:03:31;11.10;99.90
20712;DHT22;10517;50.742;4.224;2023-12-29T12:06:00;11.10;99.90
20712;DHT22;10517;50.742;4.224;2023-12-29T12:10:55;11.10;99.90
20712;DHT22;10517;50.742;4.224;2023-12-29T12:13:53;11.10;99.90
20712;DHT22;10517;50.742;4.224;2023-12-29T12:19:11;11.00;99.90
20712;DHT22;10517;50.742;4.224;2023-12-29T12:21:37;11.00;99.90
20712;DHT22;10517;50.742;4.224;2023-12-29T12:24:04;11.10;99.90
20712;DHT22;10517;50.742;4.224;2023-12-29T12:26:30;11.10;99.90
20712;DHT22;10517;50.742;4.224;2023-12-29T12:28:57;11.00;99.90
20712;DHT22;10517;50.742;4.224;2023-12-29T12:31:22;11.00;99.90
20712;DHT22;10517;50.742;4.224;2023-12-29T12:33:57;11.10;99.90
20712;DHT22;10517;50.742;4.224;2023-12-29T12:36:24;11.10;99.90
20712;DHT22;10517;50.742;4.224;2023-12-29T12:38:53;11.10;99.90
20712;DHT22;10517;50.742;4.224;2023-12-29T12:41:26;11.20;99.90
20712;DHT22;10517;50.742;4.224;2023-12-29T12:44:12;11.10;99.90
20712;DHT22;10517;50.742;4.224;2023-12-29T12:46:49;11.10;99.90
20712;DHT22;10517;50.742;4.224;2023-12-29T12:49:17;11.10;99.90
20712;DHT22;10517;50.742;4.224;2023-12-29T12:51:43;11.10;99.90
20712;DHT22;10517;50.742;4.224;2023-12-29T12:54:10;11.20;99.90
20712;DHT22;10517;50.742;4.224;2023-12-29T12:56:35;11.20;99.90
20712;DHT22;10517;50.742;4.224;2023-12-29T12:59:02;11.40;99.90
20712;DHT22;10517;50.742;4.224;2023-12-29T13:01:29;11.50;99.90
20712;DHT22;10517;50.742;4.224;2023-12-29T13:03:56;11.60;99.90
20712;DHT22;10517;50.742;4.224;2023-12-29T13:06:23;11.60;99.90
20712;DHT22;10517;50.742;4.224;2023-12-29T13:08:50;11.60;99.90
20712;DHT22;10517;50.742;4.224;2023-12-29T13:11:20;11.60;99.90
20712;DHT22;10517;50.742;4.224;2023-12-29T13:13:47;11.60;99.90
20712;DHT22;10517;50.742;4.224;2023-12-29T13:16:13;11.60;99.90
20712;DHT22;10517;50.742;4.224;2023-12-29T13:18:39;11.50;99.90
20712;DHT22;10517;50.742;4.224;2023-12-29T13:21:06;11.50;99.90
20712;DHT22;10517;50.742;4.224;2023-12-29T13:23:32;11.60;99.90
20712;DHT22;10517;50.742;4.224;2023-12-29T13:26:06;11.60;99.90
20712;DHT22;10517;50.742;4.224;2023-12-29T13:28:33;11.60;99.90
20712;DHT22;10517;50.742;4.224;2023-12-29T13:31:00;11.60;99.90
20712;DHT22;10517;50.742;4.224;2023-12-29T13:33:59;11.60;99.90
20712;DHT22;10517;50.742;4.224;2023-12-29T13:36:43;11.50;99.90
20712;DHT22;10517;50.742;4.224;2023-12-29T13:39:24;11.50;99.90
20712;DHT22;10517;50.742;4.224;2023-12-29T13:41:53;11.40;99.90
20712;DHT22;10517;50.742;4.224;2023-12-29T13:44:19;11.40;99.90
20712;DHT22;10517;50.742;4.224;2023-12-29T13:46:47;11.40;99.90
20712;DHT22;10517;50.742;4.224;2023-12-29T13:49:14;11.40;99.90
20712;DHT22;10517;50.742;4.224;2023-12-29T13:51:41;11.40;99.90
20712;DHT22;10517;50.742;4.224;2023-12-29T13:54:07;11.50;99.90
20712;DHT22;10517;50.742;4.224;2023-12-29T13:56:33;11.50;99.90
20712;DHT22;10517;50.742;4.224;2023-12-29T13:59:00;11.50;99.90
20712;DHT22;10517;50.742;4.224;2023-12-29T14:01:38;11.40;99.90
20712;DHT22;10517;50.742;4.224;2023-12-29T14:04:07;11.40;99.90
20712;DHT22;10517;50.742;4.224;2023-12-29T14:06:59;11.40;99.90
20712;DHT22;10517;50.742;4.224;2023-12-29T14:09:26;11.40;99.90
20712;DHT22;10517;50.742;4.224;2023-12-29T14:11:52;11.30;99.90
20712;DHT22;10517;50.742;4.224;2023-12-29T14:14:22;11.20;99.90
20712;DHT22;10517;50.742;4.224;2023-12-29T14:16:48;11.20;99.90
20712;DHT22;10517;50.742;4.224;2023-12-29T14:19:14;11.10;99.90
20712;DHT22;10517;50.742;4.224;2023-12-29T14:21:40;11.10;99.90
20712;DHT22;10517;50.742;4.224;2023-12-29T14:26:35;11.00;99.90
20712;DHT22;10517;50.742;4.224;2023-12-29T14:29:05;11.00;99.90
20712;DHT22;10517;50.742;4.224;2023-12-29T14:31:34;11.00;99.90
20712;DHT22;10517;50.742;4.224;2023-12-29T14:34:00;11.10;99.90
20712;DHT22;10517;50.742;4.224;2023-12-29T14:36:25;11.00;99.90
20712;DHT22;10517;50.742;4.224;2023-12-29T14:38:52;11.10;99.90
20712;DHT22;10517;50.742;4.224;2023-12-29T14:41:17;11.10;99.90
20712;DHT22;10517;50.742;4.224;2023-12-29T14:43:43;11.10;99.90
20712;DHT22;10517;50.742;4.224;2023-12-29T14:46:08;11.10;99.90
20712;DHT22;10517;50.742;4.224;2023-12-29T14:48:34;11.20;99.90
20712;DHT22;10517;50.742;4.224;2023-12-29T14:51:00;11.20;99.90
20712;DHT22;10517;50.742;4.224;2023-12-29T14:53:26;11.30;99.90
20712;DHT22;10517;50.742;4.224;2023-12-29T14:55:51;11.30;99.90
20712;DHT22;10517;50.742;4.224;2023-12-29T14:58:17;11.40;99.90
20712;DHT22;10517;50.742;4.224;2023-12-29T15:00:46;11.40;99.90
20712;DHT22;10517;50.742;4.224;2023-12-29T15:03:13;11.30;99.90
20712;DHT22;10517;50.742;4.224;2023-12-29T15:05:43;11.30;99.90
20712;DHT22;10517;50.742;4.224;2023-12-29T15:08:09;11.30;99.90
20712;DHT22;10517;50.742;4.224;2023-12-29T15:10:35;11.20;99.90
20712;DHT22;10517;50.742;4.224;2023-12-29T15:13:01;11.20;99.90
20712;DHT22;10517;50.742;4.224;2023-12-29T15:15:27;11.20;99.90
20712;DHT22;10517;50.742;4.224;2023-12-29T15:17:53;11.30;99.90
20712;DHT22;10517;50.742;4.224;2023-12-29T15:20:18;11.20;99.90
20712;DHT22;10517;50.742;4.224;2023-12-29T15:22:44;11.20;99.90
20712;DHT22;10517;50.742;4.224;2023-12-29T15:25:10;11.20;99.90
20712;DHT22;10517;50.742;4.224;2023-12-29T15:27:36;11.10;99.90
20712;DHT22;10517;50.742;4.224;2023-12-29T15:30:02;11.10;99.90
20712;DHT22;10517;50.742;4.224;2023-12-29T15:32:28;11.10;99.90
20712;DHT22;10517;50.742;4.224;2023-12-29T15:34:53;11.10;99.90
20712;DHT22;10517;50.742;4.224;2023-12-29T15:37:19;11.10;99.90
20712;DHT22;10517;50.742;4.224;2023-12-29T15:39:45;11.00;99.90
20712;DHT22;10517;50.742;4.224;2023-12-29T15:42:11;11.00;99.90
20712;DHT22;10517;50.742;4.224;2023-12-29T15:44:36;10.90;99.90
20712;DHT22;10517;50.742;4.224;2023-12-29T15:47:02;10.80;99.90
20712;DHT22;10517;50.742;4.224;2023-12-29T15:49:28;10.70;99.90
20712;DHT22;10517;50.742;4.224;2023-12-29T15:51:54;10.70;99.90